createdAt,value
2022-11-18T00:05:41.313Z,9.50
2022-11-18T00:08:45.344Z,8.93
2022-11-18T00:15:06.256Z,17.52
2022-11-18T00:18:11.920Z,11.00
2022-11-18T00:21:15.738Z,8.85
2022-11-18T00:24:19.601Z,12.07
2022-11-18T00:30:26.848Z,7.78
2022-11-18T00:33:32.822Z,7.93
2022-11-18T00:36:36.547Z,16.10
2022-11-18T00:39:40.241Z,11.45
2022-11-18T00:42:53.221Z,7.00
2022-11-18T00:45:57.463Z,10.55
2022-11-18T00:49:03.066Z,12.52
2022-11-18T00:52:06.937Z,11.95
2022-11-18T00:55:11.269Z,8.00
2022-11-18T00:58:15.614Z,11.75
2022-11-18T01:01:19.394Z,8.82
2022-11-18T01:04:25.083Z,8.10
2022-11-18T01:07:28.811Z,14.45
2022-11-18T01:10:32.614Z,8.93
2022-11-18T01:13:34.351Z,7.53
2022-11-18T01:16:38.049Z,8.02
2022-11-18T01:19:43.788Z,8.48
2022-11-18T01:22:47.480Z,10.05
2022-11-18T01:25:52.279Z,13.75
2022-11-18T01:28:57.960Z,13.13
2022-11-18T01:32:23.380Z,8.63
2022-11-18T01:35:27.180Z,10.63
2022-11-18T01:38:30.948Z,12.43
2022-11-18T01:41:34.667Z,8.77
2022-11-18T01:45:04.454Z,11.48
2022-11-18T01:48:12.630Z,9.75
2022-11-18T01:51:21.346Z,10.68
2022-11-18T01:54:28.846Z,6.40
2022-11-18T01:57:32.738Z,12.65
2022-11-18T02:03:41.125Z,11.32
2022-11-18T02:06:48.391Z,14.73
2022-11-18T02:09:53.405Z,11.95
2022-11-18T02:12:58.340Z,10.18
2022-11-18T02:16:10.091Z,12.57
2022-11-18T02:19:33.867Z,10.95
2022-11-18T02:22:55.261Z,15.88
2022-11-18T02:26:28.153Z,11.05
2022-11-18T02:29:39.426Z,8.88
2022-11-18T02:32:45.800Z,12.27
2022-11-18T02:35:55.515Z,16.02
2022-11-18T02:39:04.595Z,11.80
2022-11-18T02:42:12.123Z,12.63
2022-11-18T02:45:20.508Z,10.73
2022-11-18T02:48:26.183Z,12.40
2022-11-18T02:51:32.980Z,11.80
2022-11-18T02:54:40.812Z,16.10
2022-11-18T02:57:46.268Z,13.93
2022-11-18T03:00:57.557Z,13.15
2022-11-18T03:04:01.533Z,9.82
2022-11-18T03:07:12.603Z,15.18
2022-11-18T03:10:16.671Z,16.05
2022-11-18T03:16:33.251Z,9.18
2022-11-18T03:19:48.972Z,15.60
2022-11-18T03:22:57.779Z,12.63
2022-11-18T03:26:04.381Z,14.77
2022-11-18T03:29:14.300Z,15.13
2022-11-18T03:32:25.847Z,16.15
2022-11-18T03:35:33.795Z,18.40
2022-11-18T03:38:41.662Z,16.83
2022-11-18T03:41:50.340Z,19.63
2022-11-18T03:44:57.074Z,16.23
2022-11-18T03:48:09.039Z,18.25
2022-11-18T03:51:16.353Z,33.72
2022-11-18T03:54:24.792Z,20.55
2022-11-18T03:57:36.516Z,22.92
2022-11-18T04:00:44.567Z,26.42
2022-11-18T04:03:50.253Z,28.60
2022-11-18T04:06:59.704Z,25.00
2022-11-18T04:10:10.359Z,30.13
2022-11-18T04:13:20.129Z,25.92
2022-11-18T04:16:23.798Z,31.52
2022-11-18T04:19:30.302Z,28.55
2022-11-18T04:22:34.024Z,28.65
2022-11-18T04:25:38.218Z,33.47
2022-11-18T04:28:41.856Z,30.60
2022-11-18T04:31:45.615Z,34.30
2022-11-18T04:34:51.196Z,27.50
2022-11-18T04:37:55.000Z,30.65
2022-11-18T04:40:58.652Z,33.78
2022-11-18T04:44:12.277Z,33.33
2022-11-18T04:47:15.940Z,34.20
2022-11-18T04:50:21.598Z,31.60
2022-11-18T04:53:25.293Z,31.58
2022-11-18T04:56:29.046Z,35.67
2022-11-18T04:59:32.812Z,30.98
2022-11-18T05:02:36.473Z,31.70
2022-11-18T05:05:42.123Z,29.08
2022-11-18T05:08:45.992Z,28.27
2022-11-18T05:12:03.278Z,33.35
2022-11-18T05:15:08.135Z,38.80
2022-11-18T05:18:13.289Z,33.75
2022-11-18T05:21:18.973Z,36.63
2022-11-18T05:24:23.691Z,33.13
2022-11-18T05:27:27.623Z,30.67
2022-11-18T05:33:34.746Z,33.70
2022-11-18T05:36:40.352Z,27.85
2022-11-18T05:39:44.057Z,40.83
2022-11-18T05:43:00.880Z,37.45
2022-11-18T05:46:05.578Z,29.80
2022-11-18T05:49:09.436Z,31.75
2022-11-18T05:52:15.031Z,31.58
2022-11-18T05:55:19.492Z,35.03
2022-11-18T05:58:25.288Z,30.40
2022-11-18T06:01:34.078Z,30.20
2022-11-18T06:04:41.979Z,34.25
2022-11-18T06:07:47.952Z,36.00
2022-11-18T06:10:52.611Z,30.55
2022-11-18T06:14:02.719Z,36.20
2022-11-18T06:17:10.952Z,35.63
2022-11-18T06:20:14.999Z,28.00
2022-11-18T06:23:20.852Z,30.92
2022-11-18T06:26:24.496Z,32.03
2022-11-18T06:29:29.423Z,27.25
2022-11-18T06:32:33.510Z,33.63
2022-11-18T06:35:37.254Z,29.30
2022-11-18T06:38:42.874Z,31.40
2022-11-18T06:41:46.561Z,30.30
2022-11-18T06:44:50.267Z,35.55
2022-11-18T06:47:57.555Z,31.30
2022-11-18T06:51:01.308Z,34.13
2022-11-18T06:54:10.709Z,33.55
2022-11-18T06:57:15.083Z,33.30
2022-11-18T07:03:22.979Z,34.53
2022-11-18T07:06:29.081Z,34.92
2022-11-18T07:09:35.781Z,35.33
2022-11-18T07:12:39.507Z,33.25
2022-11-18T07:15:43.450Z,32.13
2022-11-18T07:21:51.098Z,29.08
2022-11-18T07:24:57.191Z,37.53
2022-11-18T07:28:00.979Z,32.38
2022-11-18T07:31:05.924Z,33.95
2022-11-18T07:34:09.708Z,31.10
2022-11-18T07:37:13.398Z,30.13
2022-11-18T07:40:19.534Z,31.08
2022-11-18T07:43:23.261Z,34.53
2022-11-18T07:46:28.963Z,32.38
2022-11-18T07:49:32.607Z,33.80
2022-11-18T07:52:36.272Z,32.42
2022-11-18T07:55:41.925Z,31.65
2022-11-18T07:58:46.037Z,34.63
2022-11-18T08:01:49.737Z,34.38
2022-11-18T08:04:53.521Z,28.50
2022-11-18T08:07:57.222Z,28.42
2022-11-18T08:11:05.437Z,31.92
2022-11-18T08:14:09.284Z,28.88
2022-11-18T08:17:12.974Z,30.85
2022-11-18T08:20:17.046Z,29.90
2022-11-18T08:23:20.809Z,30.17
2022-11-18T08:26:27.075Z,30.10
2022-11-18T08:29:32.953Z,29.58
2022-11-18T08:32:36.855Z,34.00
2022-11-18T08:38:44.227Z,28.17
2022-11-18T08:41:49.967Z,30.80
2022-11-18T08:44:54.166Z,25.67
2022-11-18T08:47:57.882Z,28.75
2022-11-18T08:51:02.126Z,25.38
2022-11-18T08:54:06.307Z,28.52
2022-11-18T08:57:11.960Z,27.65
2022-11-18T09:00:16.945Z,25.08
2022-11-18T09:03:20.677Z,26.00
2022-11-18T09:06:25.900Z,25.30
2022-11-18T09:09:29.619Z,29.63
2022-11-18T09:12:35.316Z,30.30
2022-11-18T09:15:39.013Z,30.80
2022-11-18T09:18:42.783Z,30.70
2022-11-18T09:21:46.522Z,27.25
2022-11-18T09:24:50.276Z,28.30
2022-11-18T09:27:55.898Z,25.35
2022-11-18T09:30:59.632Z,31.95
2022-11-18T09:34:03.422Z,25.90
2022-11-18T09:37:07.505Z,25.27
2022-11-18T09:40:17.853Z,23.95
2022-11-18T09:43:30.092Z,25.65
2022-11-18T09:46:44.834Z,23.52
2022-11-18T09:49:50.074Z,24.27
2022-11-18T09:53:06.056Z,25.45
2022-11-18T09:56:15.871Z,25.90
2022-11-18T09:59:23.337Z,24.77
2022-11-18T10:02:39.320Z,23.35
2022-11-18T10:05:49.600Z,22.02
2022-11-18T10:09:14.442Z,20.08
2022-11-18T10:12:28.344Z,22.45
2022-11-18T10:15:38.837Z,22.50
2022-11-18T10:19:05.096Z,21.30
2022-11-18T10:22:24.359Z,19.45
2022-11-18T10:25:28.589Z,18.67
2022-11-18T10:28:32.675Z,20.58
2022-11-18T10:31:40.562Z,22.45
2022-11-18T10:34:50.676Z,26.58
2022-11-18T10:38:08.127Z,20.77
2022-11-18T10:41:16.058Z,19.80
2022-11-18T10:44:34.889Z,17.38
2022-11-18T10:47:41.032Z,18.63
2022-11-18T10:50:55.269Z,17.17
2022-11-18T10:54:09.724Z,20.80
2022-11-18T10:57:20.438Z,15.13
2022-11-18T11:00:40.752Z,16.50
2022-11-18T11:03:58.468Z,17.50
2022-11-18T11:07:17.105Z,14.60
2022-11-18T11:10:23.850Z,14.43
2022-11-18T11:13:31.786Z,16.35
2022-11-18T11:16:46.013Z,16.90
2022-11-18T11:19:58.393Z,15.05
2022-11-18T11:23:02.400Z,15.13
2022-11-18T11:30:04.849Z,20.70
2022-11-18T11:33:24.094Z,19.88
2022-11-18T11:36:39.245Z,21.45
2022-11-18T11:39:55.382Z,23.23
2022-11-18T11:43:24.592Z,23.23
2022-11-18T11:46:35.421Z,17.85
2022-11-18T11:49:53.586Z,23.83
2022-11-18T11:53:16.653Z,24.67
2022-11-18T11:56:27.311Z,18.88
2022-11-18T11:59:38.668Z,19.92
2022-11-18T12:02:59.539Z,18.20
2022-11-18T12:06:03.308Z,17.45
2022-11-18T12:09:18.615Z,21.05
2022-11-18T12:12:37.520Z,19.42
2022-11-18T12:15:57.976Z,22.02
2022-11-18T12:19:08.437Z,15.40
2022-11-18T12:22:12.089Z,19.15
2022-11-18T12:25:46.247Z,13.70
2022-11-18T12:28:51.943Z,12.82
2022-11-18T12:31:57.301Z,13.35
2022-11-18T12:35:03.842Z,13.77
2022-11-18T12:38:07.608Z,12.93
2022-11-18T12:41:54.351Z,17.42
2022-11-18T12:45:34.996Z,14.38
2022-11-18T12:48:41.457Z,15.77
2022-11-18T12:51:45.723Z,14.57
2022-11-18T12:54:50.636Z,18.05
2022-11-18T12:57:54.392Z,16.33
2022-11-18T13:01:13.371Z,15.40
2022-11-18T13:04:19.516Z,23.20
2022-11-18T13:07:36.507Z,24.83
2022-11-18T13:10:50.535Z,20.08
2022-11-18T13:14:12.099Z,21.25
2022-11-18T13:17:42.567Z,18.88
2022-11-18T13:20:56.917Z,22.50
2022-11-18T13:24:00.921Z,18.85
2022-11-18T13:27:05.147Z,19.13
2022-11-18T13:30:13.421Z,17.02
2022-11-18T13:33:19.527Z,20.95
2022-11-18T13:36:25.475Z,23.42
2022-11-18T13:39:31.300Z,15.70
2022-11-18T13:42:34.978Z,19.02
2022-11-18T13:45:40.663Z,18.13
2022-11-18T13:48:50.993Z,20.00
2022-11-18T13:51:56.262Z,30.70
2022-11-18T13:55:02.347Z,20.35
2022-11-18T13:58:21.854Z,25.45
2022-11-18T14:01:27.743Z,24.33
2022-11-18T14:04:34.733Z,27.27
2022-11-18T14:07:39.023Z,23.77
2022-11-18T14:10:45.477Z,23.00
2022-11-18T14:14:01.261Z,26.75
2022-11-18T14:17:19.433Z,27.55
2022-11-18T14:20:26.075Z,30.65
2022-11-18T14:23:32.114Z,28.52
2022-11-18T14:26:37.965Z,25.55
2022-11-18T14:29:51.280Z,25.10
2022-11-18T14:33:10.900Z,24.27
2022-11-18T14:36:17.966Z,23.67
2022-11-18T14:39:26.776Z,21.13
2022-11-18T14:42:31.280Z,20.38
2022-11-18T14:48:38.980Z,16.67
2022-11-18T14:51:44.804Z,20.10
2022-11-18T14:54:51.525Z,18.55
2022-11-18T14:57:55.205Z,21.23
2022-11-18T15:00:58.971Z,20.80
2022-11-18T15:04:02.683Z,24.08
2022-11-18T15:07:10.218Z,22.67
2022-11-18T15:10:16.663Z,22.30
2022-11-18T15:13:20.304Z,22.92
2022-11-18T15:16:25.865Z,25.38
2022-11-18T15:19:32.293Z,20.13
2022-11-18T15:22:38.085Z,20.73
2022-11-18T15:25:41.907Z,18.23
2022-11-18T15:31:49.890Z,17.13
2022-11-18T15:34:53.634Z,22.10
2022-11-18T15:37:59.248Z,19.63
2022-11-18T15:41:02.966Z,20.90
2022-11-18T15:44:07.110Z,21.23
2022-11-18T15:47:10.836Z,22.63
2022-11-18T15:50:14.686Z,22.02
2022-11-18T15:56:29.113Z,23.92
2022-11-18T15:59:32.912Z,24.15
2022-11-18T16:02:36.567Z,25.17
2022-11-18T16:05:40.217Z,27.00
2022-11-18T16:08:45.926Z,21.02
2022-11-18T16:12:02.760Z,28.40
2022-11-18T16:15:20.554Z,25.52
2022-11-18T16:18:24.811Z,26.08
2022-11-18T16:21:29.811Z,22.48
2022-11-18T16:24:35.569Z,25.83
2022-11-18T16:27:39.250Z,24.42
2022-11-18T16:30:56.065Z,22.17
2022-11-18T16:33:59.749Z,23.88
2022-11-18T16:37:05.537Z,21.70
2022-11-18T16:40:13.010Z,20.23
2022-11-18T16:43:16.669Z,22.27
2022-11-18T16:46:20.322Z,17.65
2022-11-18T16:49:26.201Z,17.27
2022-11-18T16:52:30.110Z,18.45
2022-11-18T16:58:39.711Z,19.25
2022-11-18T17:01:43.872Z,17.23
2022-11-18T17:04:47.869Z,18.75
2022-11-18T17:07:51.631Z,20.88
2022-11-18T17:10:57.204Z,23.20
2022-11-18T17:14:00.933Z,18.08
2022-11-18T17:17:04.697Z,18.42
2022-11-18T17:20:09.400Z,22.75
2022-11-18T17:23:13.178Z,21.58
2022-11-18T17:26:21.750Z,16.88
2022-11-18T17:29:25.481Z,18.90
2022-11-18T17:32:29.192Z,15.10
2022-11-18T17:35:32.848Z,18.20
2022-11-18T17:38:37.845Z,17.17
2022-11-18T17:41:56.559Z,20.52
2022-11-18T17:45:00.274Z,15.70
2022-11-18T17:48:04.002Z,17.40
2022-11-18T17:51:08.203Z,22.77
2022-11-18T17:54:12.162Z,13.30
2022-11-18T17:57:17.757Z,11.85
2022-11-18T18:00:21.889Z,15.82
2022-11-18T18:03:25.605Z,10.98
2022-11-18T18:06:29.307Z,13.20
2022-11-18T18:09:33.002Z,11.77
2022-11-18T18:12:51.905Z,11.73
2022-11-18T18:16:02.829Z,12.93
2022-11-18T18:19:08.089Z,14.32
2022-11-18T18:22:11.780Z,15.73
2022-11-18T18:25:15.533Z,15.05
2022-11-18T18:28:21.135Z,19.10
2022-11-18T18:31:24.841Z,17.00
2022-11-18T18:34:28.484Z,15.27
2022-11-18T18:37:32.132Z,15.90
2022-11-18T18:40:36.028Z,18.95
2022-11-18T18:46:45.584Z,16.88
2022-11-18T18:49:49.215Z,17.83
2022-11-18T18:52:52.905Z,19.83
2022-11-18T18:55:57.603Z,23.90
2022-11-18T18:59:03.643Z,24.15
2022-11-18T19:02:07.336Z,22.73
2022-11-18T19:05:11.391Z,23.55
2022-11-18T19:08:15.039Z,24.88
2022-11-18T19:11:32.759Z,23.08
2022-11-18T19:14:38.480Z,24.50
2022-11-18T19:17:42.663Z,24.27
2022-11-18T19:20:46.376Z,25.05
2022-11-18T19:23:50.153Z,22.13
2022-11-18T19:26:54.346Z,23.17
2022-11-18T19:30:00.070Z,25.10
2022-11-18T19:33:04.901Z,22.50
2022-11-18T19:36:09.772Z,26.17
2022-11-18T19:39:13.578Z,25.73
2022-11-18T19:45:22.636Z,27.15
2022-11-18T19:48:26.968Z,29.30
2022-11-18T19:51:30.822Z,21.90
2022-11-18T19:54:34.601Z,22.45
2022-11-18T19:57:38.267Z,20.65
2022-11-18T20:00:43.919Z,22.02
2022-11-18T20:03:48.957Z,21.90
2022-11-18T20:06:52.774Z,23.83
2022-11-18T20:12:59.992Z,24.13
2022-11-18T20:16:07.480Z,22.50
2022-11-18T20:19:12.874Z,24.50
2022-11-18T20:22:16.716Z,24.00
2022-11-18T20:25:20.567Z,27.45
2022-11-18T20:31:32.578Z,24.33
2022-11-18T20:34:39.242Z,25.65
2022-11-18T20:37:43.818Z,22.58
2022-11-18T20:40:47.566Z,25.52
2022-11-18T20:43:51.729Z,30.13
2022-11-18T20:46:57.329Z,27.17
2022-11-18T20:50:01.038Z,25.70
2022-11-18T20:53:05.038Z,28.67
2022-11-18T20:56:08.913Z,27.27
2022-11-18T21:02:18.033Z,20.77
2022-11-18T21:05:21.942Z,30.90
2022-11-18T21:08:25.669Z,31.02
2022-11-18T21:11:30.230Z,25.48
2022-11-18T21:14:33.967Z,30.13
2022-11-18T21:17:39.567Z,31.85
2022-11-18T21:20:56.427Z,29.35
2022-11-18T21:24:01.661Z,30.58
2022-11-18T21:27:05.967Z,33.95
2022-11-18T21:30:10.881Z,30.33
2022-11-18T21:33:16.482Z,28.13
2022-11-18T21:36:21.131Z,29.65
2022-11-18T21:39:25.420Z,28.55
2022-11-18T21:42:29.125Z,30.10
2022-11-18T21:45:33.357Z,28.60
2022-11-18T21:48:39.693Z,29.27
2022-11-18T21:51:45.034Z,31.05
2022-11-18T21:54:48.720Z,32.78
2022-11-18T21:57:52.407Z,34.05
2022-11-18T22:04:03.337Z,33.70
2022-11-18T22:07:07.209Z,34.13
2022-11-18T22:13:14.813Z,32.22
2022-11-18T22:16:21.496Z,35.45
2022-11-18T22:19:27.119Z,32.67
2022-11-18T22:22:31.316Z,34.35
2022-11-18T22:25:34.968Z,31.52
2022-11-18T22:28:39.593Z,39.33
2022-11-18T22:31:43.384Z,35.60
2022-11-18T22:37:55.634Z,34.08
2022-11-18T22:41:03.005Z,35.70
2022-11-18T22:44:07.989Z,33.90
2022-11-18T22:47:12.202Z,33.60
2022-11-18T22:50:19.848Z,36.60
2022-11-18T22:53:23.502Z,33.30
2022-11-18T22:56:27.200Z,34.72
2022-11-18T22:59:30.844Z,37.08
2022-11-18T23:02:34.525Z,42.58
2022-11-18T23:05:40.135Z,36.13
2022-11-18T23:08:44.515Z,35.80
2022-11-18T23:12:01.339Z,35.53
2022-11-18T23:15:05.461Z,37.30
2022-11-18T23:18:11.837Z,33.30
2022-11-18T23:21:17.847Z,34.53
2022-11-18T23:24:21.835Z,41.40
2022-11-18T23:27:25.633Z,39.17
2022-11-18T23:33:32.792Z,34.70
2022-11-18T23:36:38.868Z,37.13
2022-11-18T23:39:42.520Z,39.67
2022-11-18T23:42:46.299Z,37.10
2022-11-18T23:48:53.451Z,27.15
2022-11-18T23:51:59.076Z,34.35
2022-11-18T23:55:02.723Z,31.60
2022-11-18T23:58:06.425Z,32.40
